Ouvidor, Brazil
Current Conditions -  °F | °C
As of 9:33 PM on Saturday 22 Nov 2014 (Local Time) from SBUL Reporting Station
Thunderstorm Thunderstorm  
Wind Chill: 66°   Ceiling: 3500
Heat Index: 66°   Visibility: 1.8mi
Dew Point: 64°   Wind: 8mph
Humidity: 94%   Direction: 170°S
Pressure: 30.06"   Gusts: NA
Location:  18.23°S, 47.84°W
Report Text: SBUL 222333Z 17007KT 3000 +TSRA FEW002 BKN035CB 19/18 Q1018
Loading
Personal Weather Stations






























Interactive Weather Map New forecast layout! Learn more

10-Day Weather Forecast

Advertisements
Track Severe Weather on mobile